createdAt,value
2022-11-06T00:01:27.943Z,8.40
2022-11-06T00:03:55.247Z,8.30
2022-11-06T00:06:40.649Z,8.30
2022-11-06T00:09:10.088Z,8.30
2022-11-06T00:11:37.359Z,8.20
2022-11-06T00:14:04.912Z,8.20
2022-11-06T00:16:32.049Z,8.10
2022-11-06T00:19:02.707Z,8.10
2022-11-06T00:21:30.847Z,8.10
2022-11-06T00:24:00.940Z,8.00
2022-11-06T00:26:29.830Z,8.00
2022-11-06T00:28:57.440Z,8.00
2022-11-06T00:31:27.712Z,8.00
2022-11-06T00:33:58.045Z,8.00
2022-11-06T00:36:26.379Z,7.90
2022-11-06T00:38:55.291Z,7.90
2022-11-06T00:41:23.116Z,7.90
2022-11-06T00:43:58.919Z,7.90
2022-11-06T00:46:27.058Z,7.80
2022-11-06T00:48:54.743Z,7.80
2022-11-06T00:51:24.879Z,7.80
2022-11-06T00:54:00.794Z,7.80
2022-11-06T00:56:28.483Z,7.80
2022-11-06T00:58:56.372Z,7.70
2022-11-06T01:01:32.346Z,7.70
2022-11-06T01:04:03.222Z,7.80
2022-11-06T01:06:36.776Z,7.80
2022-11-06T01:09:05.638Z,7.70
2022-11-06T01:11:59.236Z,7.70
2022-11-06T01:14:23.707Z,7.70
2022-11-06T01:16:51.560Z,7.70
2022-11-06T01:19:21.417Z,7.70
2022-11-06T01:21:50.266Z,7.70
2022-11-06T01:24:28.691Z,7.70
2022-11-06T01:27:24.831Z,7.70
2022-11-06T01:29:45.069Z,7.70
2022-11-06T01:32:12.100Z,7.60
2022-11-06T01:34:39.302Z,7.70
2022-11-06T01:37:09.194Z,7.60
2022-11-06T01:39:40.147Z,7.60
2022-11-06T01:42:07.516Z,7.60
2022-11-06T01:44:43.468Z,7.60
2022-11-06T01:47:42.783Z,7.60
2022-11-06T01:50:12.480Z,7.60
2022-11-06T01:52:41.052Z,7.50
2022-11-06T01:55:30.612Z,7.60
2022-11-06T01:57:59.977Z,7.50
2022-11-06T02:00:27.711Z,7.50
2022-11-06T02:02:55.970Z,7.50
2022-11-06T02:05:23.379Z,7.50
2022-11-06T02:07:51.720Z,7.50
2022-11-06T02:10:18.816Z,7.40
2022-11-06T02:13:06.251Z,7.40
2022-11-06T02:15:39.353Z,7.40
2022-11-06T02:18:12.743Z,7.40
2022-11-06T02:20:54.691Z,7.40
2022-11-06T02:24:03.469Z,7.30
2022-11-06T02:26:52.203Z,7.30
2022-11-06T02:29:26.184Z,7.20
2022-11-06T02:31:59.432Z,7.30
2022-11-06T02:34:28.499Z,7.20
2022-11-06T02:37:06.366Z,7.20
2022-11-06T02:39:34.841Z,7.20
2022-11-06T02:42:05.275Z,7.20
2022-11-06T02:44:36.186Z,7.20
2022-11-06T02:47:10.491Z,7.20
2022-11-06T02:49:41.409Z,7.20
2022-11-06T02:52:18.270Z,7.20
2022-11-06T02:54:51.386Z,7.20
2022-11-06T02:57:20.960Z,7.20
2022-11-06T03:00:01.326Z,7.20
2022-11-06T03:02:41.044Z,7.30
2022-11-06T03:05:23.816Z,7.20
2022-11-06T03:08:12.172Z,7.20
2022-11-06T03:10:49.160Z,7.20
2022-11-06T03:13:24.355Z,7.20
2022-11-06T03:16:10.996Z,7.20
2022-11-06T03:18:53.543Z,7.20
2022-11-06T03:21:31.150Z,7.10
2022-11-06T03:24:16.699Z,7.10
2022-11-06T03:26:50.820Z,7.10
2022-11-06T03:29:45.835Z,7.00
2022-11-06T03:32:19.016Z,7.00
2022-11-06T03:34:54.704Z,6.90
2022-11-06T03:37:30.469Z,6.90
2022-11-06T03:40:04.225Z,6.80
2022-11-06T03:42:31.728Z,6.80
2022-11-06T03:45:03.185Z,6.80
2022-11-06T03:47:34.433Z,6.70
2022-11-06T03:50:16.636Z,6.70
2022-11-06T03:52:51.488Z,6.60
2022-11-06T03:55:28.633Z,6.60
2022-11-06T03:58:06.442Z,6.60
2022-11-06T04:00:35.515Z,6.50
2022-11-06T04:03:07.704Z,6.50
2022-11-06T04:05:40.633Z,6.40
2022-11-06T04:08:29.846Z,6.40
2022-11-06T04:11:20.008Z,6.40
2022-11-06T04:13:57.403Z,6.30
2022-11-06T04:16:34.248Z,6.30
2022-11-06T04:19:01.589Z,6.30
2022-11-06T04:21:34.701Z,6.20
2022-11-06T04:24:23.054Z,6.20
2022-11-06T04:27:08.818Z,6.20
2022-11-06T04:30:08.530Z,6.10
2022-11-06T04:33:03.126Z,6.10
2022-11-06T04:35:43.103Z,6.00
2022-11-06T04:38:10.313Z,6.00
2022-11-06T04:41:06.340Z,6.00
2022-11-06T04:43:47.352Z,6.00
2022-11-06T04:46:27.641Z,5.90
2022-11-06T04:48:55.067Z,5.80
2022-11-06T04:51:26.466Z,5.80
2022-11-06T04:53:54.258Z,5.80
2022-11-06T04:56:29.471Z,5.80
2022-11-06T04:58:57.459Z,5.70
2022-11-06T05:01:24.539Z,5.70
2022-11-06T05:03:51.617Z,5.70
2022-11-06T05:06:18.742Z,5.60
2022-11-06T05:08:46.198Z,5.60
2022-11-06T05:11:13.286Z,5.60
2022-11-06T05:13:40.188Z,5.60
2022-11-06T05:16:07.330Z,5.50
2022-11-06T05:18:34.285Z,5.50
2022-11-06T05:21:22.244Z,5.50
2022-11-06T05:23:49.131Z,5.50
2022-11-06T05:26:16.067Z,5.50
2022-11-06T05:28:43.071Z,5.50
2022-11-06T05:31:10.006Z,5.50
2022-11-06T05:33:36.918Z,5.50
2022-11-06T05:36:07.463Z,5.50
2022-11-06T05:38:34.524Z,5.50
2022-11-06T05:41:01.637Z,5.50
2022-11-06T05:43:28.446Z,5.50
2022-11-06T05:45:55.337Z,5.50
2022-11-06T05:48:22.221Z,5.50
2022-11-06T05:50:49.076Z,5.50
2022-11-06T05:53:17.000Z,5.50
2022-11-06T05:55:47.284Z,5.40
2022-11-06T05:58:15.236Z,5.40
2022-11-06T06:00:42.332Z,5.50
2022-11-06T06:03:09.964Z,5.40
2022-11-06T06:05:37.345Z,5.40
2022-11-06T06:08:05.155Z,5.40
2022-11-06T06:10:32.405Z,5.30
2022-11-06T06:12:59.427Z,5.40
2022-11-06T06:15:26.521Z,5.40
2022-11-06T06:17:53.718Z,5.30
2022-11-06T06:20:20.930Z,5.30
2022-11-06T06:22:58.404Z,5.30
2022-11-06T06:25:26.723Z,5.30
2022-11-06T06:27:55.073Z,5.30
2022-11-06T06:30:23.211Z,5.30
2022-11-06T06:32:51.006Z,5.30
2022-11-06T06:35:18.888Z,5.30
2022-11-06T06:37:55.190Z,5.20
2022-11-06T06:40:23.269Z,5.30
2022-11-06T06:42:50.443Z,5.30
2022-11-06T06:45:17.636Z,5.30
2022-11-06T06:47:44.664Z,5.30
2022-11-06T06:50:11.563Z,5.30
2022-11-06T06:52:38.714Z,5.30
2022-11-06T06:55:06.958Z,5.40
2022-11-06T06:57:33.885Z,5.40
2022-11-06T07:00:00.843Z,5.40
2022-11-06T07:02:28.037Z,5.40
2022-11-06T07:04:55.025Z,5.50
2022-11-06T07:07:21.999Z,5.50
2022-11-06T07:09:49.021Z,5.50
2022-11-06T07:12:15.856Z,5.60
2022-11-06T07:14:42.887Z,5.60
2022-11-06T07:17:09.795Z,5.70
2022-11-06T07:19:36.979Z,5.70
2022-11-06T07:22:04.154Z,5.80
2022-11-06T07:24:31.293Z,5.90
2022-11-06T07:26:58.378Z,5.90
2022-11-06T07:29:25.512Z,6.00
2022-11-06T07:31:52.337Z,6.10
2022-11-06T07:34:19.243Z,6.30
2022-11-06T07:36:46.359Z,6.40
2022-11-06T07:39:13.264Z,6.50
2022-11-06T07:41:40.345Z,6.70
2022-11-06T07:44:07.206Z,6.80
2022-11-06T07:46:34.524Z,6.90
2022-11-06T07:49:01.803Z,7.00
2022-11-06T07:51:28.654Z,7.10
2022-11-06T07:53:55.526Z,7.10
2022-11-06T07:56:22.794Z,7.20
2022-11-06T07:58:49.996Z,7.20
2022-11-06T08:01:18.831Z,7.30
2022-11-06T08:03:46.857Z,7.40
2022-11-06T08:06:13.720Z,7.50
2022-11-06T08:08:40.882Z,7.50
2022-11-06T08:11:10.515Z,7.40
2022-11-06T08:13:38.580Z,7.40
2022-11-06T08:16:11.407Z,7.40
2022-11-06T08:18:39.097Z,7.40
2022-11-06T08:21:07.222Z,7.40
2022-11-06T08:23:35.292Z,7.40
2022-11-06T08:26:05.600Z,7.50
2022-11-06T08:28:34.453Z,7.50
2022-11-06T08:31:08.656Z,7.50
2022-11-06T08:33:37.716Z,7.60
2022-11-06T08:36:06.668Z,7.60
2022-11-06T08:38:34.156Z,7.80
2022-11-06T08:41:09.402Z,7.90
2022-11-06T08:43:37.436Z,8.00
2022-11-06T08:46:09.120Z,8.10
2022-11-06T08:48:36.556Z,8.20
2022-11-06T08:51:05.345Z,8.30
2022-11-06T08:53:32.649Z,8.30
2022-11-06T08:56:02.252Z,8.30
2022-11-06T08:58:30.500Z,8.40
2022-11-06T09:00:57.551Z,8.50
2022-11-06T09:03:24.733Z,8.50
2022-11-06T09:05:53.736Z,8.60
2022-11-06T09:08:20.829Z,8.70
2022-11-06T09:10:47.696Z,8.80
2022-11-06T09:13:14.844Z,8.80
2022-11-06T09:15:42.060Z,8.90
2022-11-06T09:18:10.615Z,8.90
2022-11-06T09:20:37.857Z,9.00
2022-11-06T09:23:07.305Z,9.10
2022-11-06T09:25:34.547Z,9.10
2022-11-06T09:28:01.567Z,9.20
2022-11-06T09:30:30.993Z,9.20
2022-11-06T09:33:01.784Z,9.30
2022-11-06T09:35:31.848Z,9.30
2022-11-06T09:38:11.202Z,9.30
2022-11-06T09:40:50.057Z,9.30
2022-11-06T09:44:06.503Z,9.30
2022-11-06T09:46:49.521Z,9.30
2022-11-06T09:49:32.116Z,9.40
2022-11-06T09:52:06.336Z,9.40
2022-11-06T09:54:44.917Z,9.40
2022-11-06T09:57:25.739Z,9.40
2022-11-06T09:59:52.981Z,9.50
2022-11-06T10:02:32.019Z,9.50
2022-11-06T10:05:22.231Z,9.60
2022-11-06T10:07:52.709Z,9.70
2022-11-06T10:10:24.951Z,9.80
2022-11-06T10:13:02.208Z,9.90
2022-11-06T10:15:45.443Z,10.00
2022-11-06T10:18:28.355Z,10.10
2022-11-06T10:21:20.435Z,10.20
2022-11-06T10:23:58.026Z,10.20
2022-11-06T10:26:42.406Z,10.20
2022-11-06T10:29:12.484Z,10.20
2022-11-06T10:31:47.906Z,10.20
2022-11-06T10:34:49.404Z,10.20
2022-11-06T10:37:32.738Z,10.20
2022-11-06T10:40:00.282Z,10.20
2022-11-06T10:42:38.341Z,10.30
2022-11-06T10:45:15.060Z,10.30
2022-11-06T10:48:28.923Z,10.40
2022-11-06T10:51:22.220Z,10.40
2022-11-06T10:53:58.038Z,10.40
2022-11-06T10:56:52.456Z,10.40
2022-11-06T10:59:19.416Z,10.40
2022-11-06T11:01:46.543Z,10.40
2022-11-06T11:04:13.539Z,10.40
2022-11-06T11:06:42.386Z,10.50
2022-11-06T11:09:30.849Z,10.50
2022-11-06T11:11:58.691Z,10.50
2022-11-06T11:14:30.934Z,10.60
2022-11-06T11:17:02.011Z,10.60
2022-11-06T11:19:41.557Z,10.70
2022-11-06T11:22:21.412Z,10.80
2022-11-06T11:25:24.050Z,10.90
2022-11-06T11:27:50.985Z,11.00
2022-11-06T11:30:26.717Z,11.10
2022-11-06T11:32:54.404Z,11.20
2022-11-06T11:35:31.008Z,11.40
2022-11-06T11:38:16.917Z,11.50
2022-11-06T11:40:47.231Z,11.60
2022-11-06T11:43:24.113Z,11.80
2022-11-06T11:46:09.353Z,11.90
2022-11-06T11:48:46.457Z,12.10
2022-11-06T11:51:28.420Z,12.40
2022-11-06T11:54:17.724Z,12.70
2022-11-06T11:57:06.967Z,12.90
2022-11-06T11:59:43.430Z,13.00
2022-11-06T12:02:47.942Z,12.90
2022-11-06T12:05:23.613Z,12.80
2022-11-06T12:07:55.069Z,12.80
2022-11-06T12:10:41.325Z,12.90
2022-11-06T12:13:21.442Z,13.10
2022-11-06T12:16:18.470Z,13.20
2022-11-06T12:18:57.570Z,13.20
2022-11-06T12:21:32.331Z,13.10
2022-11-06T12:24:16.023Z,13.20
2022-11-06T12:26:54.380Z,13.20
2022-11-06T12:29:44.250Z,13.30
2022-11-06T12:32:26.886Z,13.20
2022-11-06T12:35:13.899Z,13.20
2022-11-06T12:37:58.672Z,13.20
2022-11-06T12:40:55.772Z,13.40
2022-11-06T12:43:28.820Z,13.70
2022-11-06T12:46:07.565Z,13.90
2022-11-06T12:48:44.496Z,14.10
2022-11-06T12:51:49.025Z,14.10
2022-11-06T12:54:34.649Z,14.10
2022-11-06T12:57:21.384Z,14.10
2022-11-06T13:00:00.389Z,14.10
2022-11-06T13:02:48.730Z,14.20
2022-11-06T13:05:53.378Z,14.20
2022-11-06T13:08:32.776Z,14.30
2022-11-06T13:11:20.913Z,14.30
2022-11-06T13:14:15.359Z,14.50
2022-11-06T13:17:01.969Z,14.80
2022-11-06T13:19:51.266Z,15.20
2022-11-06T13:22:30.318Z,15.60
2022-11-06T13:25:15.703Z,15.80
2022-11-06T13:27:47.432Z,16.00
2022-11-06T13:30:24.393Z,16.20
2022-11-06T13:33:25.206Z,16.20
2022-11-06T13:35:52.812Z,16.20
2022-11-06T13:38:29.125Z,15.90
2022-11-06T13:41:03.806Z,15.80
2022-11-06T13:43:46.561Z,15.70
2022-11-06T13:46:55.684Z,15.60
2022-11-06T13:49:25.508Z,15.40
2022-11-06T13:51:55.642Z,15.20
2022-11-06T13:54:33.894Z,15.00
2022-11-06T13:57:37.242Z,14.80
2022-11-06T14:00:53.746Z,14.50
2022-11-06T14:03:44.253Z,14.20
2022-11-06T14:06:21.832Z,13.90
2022-11-06T14:08:59.277Z,13.70
2022-11-06T14:11:31.274Z,13.50
2022-11-06T14:14:00.130Z,13.30
2022-11-06T14:16:30.238Z,13.10
2022-11-06T14:19:07.227Z,12.90
2022-11-06T14:21:37.079Z,12.70
2022-11-06T14:24:32.431Z,12.60
2022-11-06T14:27:06.713Z,12.40
2022-11-06T14:29:33.826Z,12.20
2022-11-06T14:32:11.916Z,12.00
2022-11-06T14:34:43.234Z,11.80
2022-11-06T14:37:19.620Z,11.70
2022-11-06T14:39:56.584Z,11.60
2022-11-06T14:42:41.078Z,11.40
2022-11-06T14:45:08.953Z,11.20
2022-11-06T14:47:56.719Z,11.10
2022-11-06T14:50:36.164Z,11.00
2022-11-06T14:53:19.687Z,10.80
2022-11-06T14:56:01.361Z,10.60
2022-11-06T14:58:38.339Z,10.50
2022-11-06T15:01:11.280Z,10.30
2022-11-06T15:03:51.250Z,10.20
2022-11-06T15:06:18.112Z,10.00
2022-11-06T15:08:50.801Z,9.90
2022-11-06T15:11:29.930Z,9.80
2022-11-06T15:14:03.478Z,9.60
2022-11-06T15:16:52.284Z,9.50
2022-11-06T15:19:26.570Z,9.40
2022-11-06T15:21:58.139Z,9.30
2022-11-06T15:24:28.835Z,9.20
2022-11-06T15:26:59.411Z,9.10
2022-11-06T15:29:28.678Z,9.00
2022-11-06T15:32:15.812Z,8.90
2022-11-06T15:34:55.825Z,8.80
2022-11-06T15:37:31.650Z,8.80
2022-11-06T15:40:01.278Z,8.70
2022-11-06T15:42:33.897Z,8.60
2022-11-06T15:45:21.854Z,8.60
2022-11-06T15:47:57.810Z,8.50
2022-11-06T15:50:32.001Z,8.40
2022-11-06T15:53:15.077Z,8.40
2022-11-06T15:55:54.626Z,8.30
2022-11-06T15:58:29.570Z,8.30
2022-11-06T16:00:59.137Z,8.20
2022-11-06T16:03:30.370Z,8.20
2022-11-06T16:06:00.540Z,8.10
2022-11-06T16:08:29.971Z,8.10
2022-11-06T16:10:58.635Z,8.00
2022-11-06T16:13:26.668Z,7.90
2022-11-06T16:16:02.281Z,7.90
2022-11-06T16:18:35.803Z,7.90
2022-11-06T16:21:11.743Z,7.80
2022-11-06T16:23:43.803Z,7.70
2022-11-06T16:26:14.357Z,7.70
2022-11-06T16:28:47.375Z,7.70
2022-11-06T16:31:22.659Z,7.70
2022-11-06T16:34:06.027Z,7.60
2022-11-06T16:37:12.629Z,7.60
2022-11-06T16:39:50.840Z,7.60
2022-11-06T16:42:23.987Z,7.50
2022-11-06T16:45:31.326Z,7.50
2022-11-06T16:48:06.784Z,7.40
2022-11-06T16:50:43.797Z,7.40
2022-11-06T16:53:11.192Z,7.40
2022-11-06T16:55:39.399Z,7.40
2022-11-06T16:58:16.176Z,7.30
2022-11-06T17:00:43.469Z,7.30
2022-11-06T17:03:20.120Z,7.30
2022-11-06T17:05:57.640Z,7.20
2022-11-06T17:08:29.388Z,7.20
2022-11-06T17:11:15.373Z,7.20
2022-11-06T17:13:45.083Z,7.20
2022-11-06T17:16:16.260Z,7.10
2022-11-06T17:18:43.211Z,7.10
2022-11-06T17:21:22.476Z,7.10
2022-11-06T17:23:49.992Z,7.00
2022-11-06T17:26:30.763Z,7.00
2022-11-06T17:28:58.993Z,6.90
2022-11-06T17:31:26.835Z,6.90
2022-11-06T17:33:53.997Z,6.90
2022-11-06T17:36:26.858Z,6.80
2022-11-06T17:38:55.645Z,6.80
2022-11-06T17:41:32.694Z,6.80
2022-11-06T17:44:06.363Z,6.70
2022-11-06T17:46:36.617Z,6.70
2022-11-06T17:49:04.023Z,6.70
2022-11-06T17:51:50.231Z,6.70
2022-11-06T17:54:18.693Z,6.60
2022-11-06T17:56:45.582Z,6.60
2022-11-06T17:59:13.831Z,6.60
2022-11-06T18:01:41.766Z,6.60
2022-11-06T18:04:09.824Z,6.50
2022-11-06T18:06:36.750Z,6.50
2022-11-06T18:09:06.157Z,6.50
2022-11-06T18:11:33.937Z,6.50
2022-11-06T18:14:00.993Z,6.50
2022-11-06T18:16:32.212Z,6.50
2022-11-06T18:18:59.640Z,6.50
2022-11-06T18:21:26.940Z,6.50
2022-11-06T18:23:54.218Z,6.40
2022-11-06T18:26:22.372Z,6.40
2022-11-06T18:28:50.285Z,6.40
2022-11-06T18:31:17.936Z,6.40
2022-11-06T18:33:45.910Z,6.30
2022-11-06T18:36:13.957Z,6.30
2022-11-06T18:38:41.984Z,6.30
2022-11-06T18:41:10.516Z,6.30
2022-11-06T18:43:37.706Z,6.20
2022-11-06T18:46:09.435Z,6.20
2022-11-06T18:48:36.889Z,6.20
2022-11-06T18:51:09.744Z,6.10
2022-11-06T18:53:37.558Z,6.10
2022-11-06T18:56:05.075Z,6.10
2022-11-06T18:58:32.102Z,6.00
2022-11-06T19:01:03.950Z,6.00
2022-11-06T19:03:30.995Z,6.00
2022-11-06T19:05:58.945Z,6.00
2022-11-06T19:08:26.241Z,6.00
2022-11-06T19:10:53.279Z,6.00
2022-11-06T19:13:20.551Z,6.00
2022-11-06T19:15:48.227Z,5.90
2022-11-06T19:18:16.293Z,5.90
2022-11-06T19:20:44.318Z,5.90
2022-11-06T19:23:15.379Z,5.90
2022-11-06T19:25:43.010Z,5.90
2022-11-06T19:28:10.189Z,5.90
2022-11-06T19:30:37.395Z,5.80
2022-11-06T19:33:04.787Z,5.80
2022-11-06T19:35:32.197Z,5.80
2022-11-06T19:37:59.134Z,5.80
2022-11-06T19:40:27.672Z,5.80
2022-11-06T19:42:55.099Z,5.80
2022-11-06T19:45:22.157Z,5.80
2022-11-06T19:47:48.977Z,5.80
2022-11-06T19:50:17.592Z,5.80
2022-11-06T19:52:53.415Z,5.80
2022-11-06T19:55:26.003Z,5.80
2022-11-06T19:57:57.745Z,5.80
2022-11-06T20:00:24.610Z,5.80
2022-11-06T20:02:51.549Z,5.80
2022-11-06T20:05:18.489Z,5.90
2022-11-06T20:07:45.547Z,5.80
2022-11-06T20:10:12.596Z,5.80
2022-11-06T20:12:39.436Z,5.80
2022-11-06T20:15:06.706Z,5.80
2022-11-06T20:17:33.730Z,5.80
2022-11-06T20:20:00.595Z,5.80
2022-11-06T20:22:27.578Z,5.80
2022-11-06T20:24:54.647Z,5.80
2022-11-06T20:27:21.686Z,5.80
2022-11-06T20:29:48.503Z,5.70
2022-11-06T20:32:18.993Z,5.70
2022-11-06T20:34:46.334Z,5.70
2022-11-06T20:37:13.439Z,5.70
2022-11-06T20:39:41.748Z,5.70
2022-11-06T20:42:08.688Z,5.60
2022-11-06T20:44:35.834Z,5.60
2022-11-06T20:47:03.109Z,5.60
2022-11-06T20:49:30.489Z,5.50
2022-11-06T20:52:13.651Z,5.50
2022-11-06T20:54:46.416Z,5.50
2022-11-06T20:57:15.450Z,5.50
2022-11-06T20:59:42.694Z,5.50
2022-11-06T21:02:11.420Z,5.40
2022-11-06T21:04:38.733Z,5.40
2022-11-06T21:07:05.626Z,5.40
2022-11-06T21:09:32.666Z,5.40
2022-11-06T21:11:59.599Z,5.40
2022-11-06T21:14:26.712Z,5.40
2022-11-06T21:16:54.162Z,5.40
2022-11-06T21:19:21.124Z,5.40
2022-11-06T21:21:48.646Z,5.40
2022-11-06T21:24:15.820Z,5.30
2022-11-06T21:26:43.808Z,5.30
2022-11-06T21:29:11.833Z,5.30
2022-11-06T21:31:47.292Z,5.20
2022-11-06T21:34:16.293Z,5.20
2022-11-06T21:36:43.331Z,5.20
2022-11-06T21:39:16.536Z,4.60
2022-11-06T21:41:44.185Z,5.20
2022-11-06T21:44:18.481Z,5.10
2022-11-06T21:46:46.273Z,5.10
2022-11-06T21:49:14.591Z,5.10
2022-11-06T21:51:42.127Z,5.10
2022-11-06T21:54:30.367Z,5.10
2022-11-06T21:56:58.618Z,5.00
2022-11-06T21:59:28.869Z,5.00
2022-11-06T22:01:56.357Z,5.00
2022-11-06T22:04:23.681Z,5.00
2022-11-06T22:06:52.430Z,5.10
2022-11-06T22:09:25.036Z,5.10
2022-11-06T22:11:52.450Z,5.10
2022-11-06T22:14:19.343Z,5.10
2022-11-06T22:16:47.440Z,5.10
2022-11-06T22:19:16.157Z,5.10
2022-11-06T22:21:43.698Z,5.10
2022-11-06T22:24:14.251Z,5.10
2022-11-06T22:26:41.280Z,5.10
2022-11-06T22:29:13.704Z,5.10
2022-11-06T22:31:41.063Z,5.10
2022-11-06T22:34:10.152Z,5.00
2022-11-06T22:36:37.641Z,5.00
2022-11-06T22:39:07.725Z,5.00
2022-11-06T22:41:36.162Z,5.00
2022-11-06T22:44:04.216Z,4.90
2022-11-06T22:46:31.461Z,4.90
2022-11-06T22:48:58.866Z,4.90
2022-11-06T22:51:28.853Z,4.90
2022-11-06T22:53:55.880Z,4.80
2022-11-06T22:56:25.256Z,4.80
2022-11-06T22:59:03.806Z,4.70
2022-11-06T23:01:34.963Z,4.70
2022-11-06T23:04:07.878Z,4.70
2022-11-06T23:06:35.131Z,4.70
2022-11-06T23:09:02.427Z,4.60
2022-11-06T23:11:29.574Z,4.60
2022-11-06T23:13:57.616Z,4.60
2022-11-06T23:16:45.284Z,4.60
2022-11-06T23:19:14.671Z,4.50
2022-11-06T23:21:42.410Z,4.50
2022-11-06T23:24:10.263Z,4.50
2022-11-06T23:26:37.795Z,4.50
2022-11-06T23:29:06.050Z,4.50
2022-11-06T23:31:33.246Z,4.50
2022-11-06T23:34:00.358Z,4.50
2022-11-06T23:36:27.447Z,4.50
2022-11-06T23:38:54.355Z,4.50
2022-11-06T23:41:41.900Z,4.50
2022-11-06T23:44:29.014Z,4.50
2022-11-06T23:46:57.618Z,4.60
2022-11-06T23:49:24.769Z,4.70
2022-11-06T23:51:52.679Z,4.70
2022-11-06T23:54:19.578Z,4.80
2022-11-06T23:56:46.429Z,4.90
2022-11-06T23:59:13.310Z,5.00
